Accueil
METAR-TAF:

METAR-TAF

Aéroports :

Stavanger, Norvège

Aéroport de Stavanger

latitude: 58-53N, longitude: 005-38E, altitude: 0 m

Observation

Le bulletin a été fait il y a 41 minutes, à 22:20 UTC
Vent 7 kt de est/nord-est
Température 2°C
Humidité 64%
Pression 1004 hPa
Visibilité 10 km ou plus
Quelques nuages à une hauteur de 4000 ft
Nuages fragmentés à une hauteur de 5000 ft

METAR: ENZV 202220Z 07007KT 9999 FEW040 BKN050 02/M04 Q1004

Heure: 00:01 (23:01 UTC)

Prévision

Prévision valable du 20 à 18 UTC au 21 à 18 UTC
Vent 7 kt de sud-est
Visibilité 10 km ou plus
Quelques nuages à une hauteur de 3000 ft, Cumulus congestus.
Nuages fragmentés à une hauteur de 6000 ft
Temporairement
du 20 à 18 UTC au 20 à 22 UTC
Visibilité: 2000 m
à une hauteur de 1200 ft
averses de neige, grésil ou neige roulée

TAF: ENZV 2018/2118 13007KT 9999 FEW030TCU BKN060 TEMPO 2018/2022 2000 SHSNGS VV012

Observations et prévisions météorologiques de plus de 4000 aéroports (messages METAR et TAF).

Les stations disponibles sont représentées par des disques jaunes et rouges sur la carte.

Passer la souris dessus pour voir le nom de la station.

Cliquer dessus pour voir les observations et prévisions météorologiques.

Pour changer de carte: cliquez sur les boutons verts avec une croix noire pour zoomer, sur le bouton vert avec un tiret pour effectuer un zoom arrière, ou sur les flèches vertes pour les cartes adjacentes.


METAR-TAF: